Time;durP1;ratioP1;P1;durP2;ratioP2;P2;SDS_P1;SDS_P2;PMS_P1;PMS_P2;Temp;Humidity;BMP_temperature;BMP_pressure;BME280_temperature;BME280_humidity;BME280_pressure;Samples;Min_cycle;Max_cycle;Signal;HPM_P1;HPM_P2
2021/08/14 00:00:22;;;;;;;8.00;7.17;;;20.30;99.90;;;;;;4884736;29;20231;-81
2021/08/14 00:02:50;;;;;;;8.67;7.53;;;20.30;99.90;;;;;;4886199;29;20200;-81
2021/08/14 00:05:17;;;;;;;8.63;7.30;;;20.20;99.90;;;;;;4883279;29;20202;-81
2021/08/14 00:07:43;;;;;;;9.20;7.63;;;20.20;99.90;;;;;;4880161;29;20210;-81
2021/08/14 00:10:11;;;;;;;9.20;7.70;;;20.20;99.90;;;;;;4879444;29;20627;-81
2021/08/14 00:12:38;;;;;;;8.50;7.27;;;20.10;99.90;;;;;;4881376;29;20264;-81
2021/08/14 00:15:06;;;;;;;9.73;7.80;;;20.10;99.90;;;;;;4883897;29;20655;-82
2021/08/14 00:17:32;;;;;;;9.53;7.80;;;20.10;99.90;;;;;;4882340;29;20277;-80
2021/08/14 00:20:00;;;;;;;10.00;8.20;;;20.00;99.90;;;;;;4882882;29;20258;-81
2021/08/14 00:22:27;;;;;;;9.87;8.03;;;19.90;99.90;;;;;;4884946;29;20261;-81
2021/08/14 00:24:54;;;;;;;8.80;7.73;;;19.90;99.90;;;;;;4879981;29;20229;-81
2021/08/14 00:27:21;;;;;;;9.87;8.60;;;19.90;99.90;;;;;;4884304;29;20672;-81
2021/08/14 00:29:48;;;;;;;10.73;8.13;;;19.80;99.90;;;;;;4884260;29;20707;-81
2021/08/14 00:32:14;;;;;;;10.57;8.87;;;19.80;99.90;;;;;;4882061;29;20710;-81
2021/08/14 00:34:41;;;;;;;9.90;8.10;;;19.70;99.90;;;;;;4882057;29;20204;-81
2021/08/14 00:37:09;;;;;;;9.90;8.90;;;19.70;99.90;;;;;;4880752;29;20237;-81
2021/08/14 00:39:37;;;;;;;10.17;9.17;;;19.70;99.90;;;;;;4881099;29;20254;-81
2021/08/14 00:42:04;;;;;;;11.27;9.80;;;19.70;99.90;;;;;;4884320;29;20217;-81
2021/08/14 00:44:33;;;;;;;9.00;7.87;;;19.70;99.90;;;;;;4886300;29;20205;-81
2021/08/14 00:47:00;;;;;;;9.90;8.43;;;19.60;99.90;;;;;;4877215;29;20201;-80
2021/08/14 00:49:27;;;;;;;11.83;9.07;;;19.60;99.90;;;;;;4884943;29;20248;-80
2021/08/14 00:51:54;;;;;;;9.10;8.00;;;19.70;99.90;;;;;;4883710;29;20214;-80
2021/08/14 00:54:22;;;;;;;9.77;8.87;;;19.60;99.90;;;;;;4881832;29;20585;-80
2021/08/14 00:56:49;;;;;;;10.50;9.30;;;19.60;99.90;;;;;;4879248;29;20205;-80
2021/08/14 00:59:17;;;;;;;11.50;9.50;;;19.60;99.90;;;;;;4875203;29;20221;-82
2021/08/14 01:01:44;;;;;;;11.10;9.93;;;19.60;99.90;;;;;;4883039;29;20229;-80
2021/08/14 01:04:13;;;;;;;10.63;9.53;;;19.50;99.90;;;;;;4885561;29;20205;-81
2021/08/14 01:06:40;;;;;;;11.20;10.10;;;19.50;99.90;;;;;;4880221;29;20676;-81
2021/08/14 01:09:07;;;;;;;10.73;9.10;;;19.50;99.90;;;;;;4882125;29;20206;-81
2021/08/14 01:11:37;;;;;;;12.07;9.20;;;19.50;99.90;;;;;;4884106;29;20232;-80
2021/08/14 01:14:04;;;;;;;11.67;9.60;;;19.40;99.90;;;;;;4879415;29;20206;-81
2021/08/14 01:16:31;;;;;;;10.23;9.23;;;19.30;99.90;;;;;;4882690;29;20675;-81
2021/08/14 01:18:58;;;;;;;11.00;9.90;;;19.30;99.90;;;;;;4882289;29;20672;-80
2021/08/14 01:21:26;;;;;;;11.50;10.07;;;19.30;99.90;;;;;;4884616;29;20221;-81
2021/08/14 01:23:54;;;;;;;11.73;9.97;;;19.30;99.90;;;;;;4881193;29;20213;-80
2021/08/14 01:26:21;;;;;;;11.20;10.10;;;19.30;99.90;;;;;;4882545;29;20758;-80
2021/08/14 01:28:50;;;;;;;11.07;9.97;;;19.30;99.90;;;;;;4881786;29;20256;-81
2021/08/14 01:31:19;;;;;;;11.43;10.33;;;19.30;99.90;;;;;;4881380;29;20646;-81
2021/08/14 01:33:46;;;;;;;11.43;9.60;;;19.20;99.90;;;;;;4881542;29;20212;-81
2021/08/14 01:36:15;;;;;;;10.67;9.13;;;19.20;99.90;;;;;;4883762;29;20212;-81
2021/08/14 01:38:47;;;;;;;14.10;9.47;;;19.20;99.90;;;;;;4878404;29;20588;-81
2021/08/14 01:41:15;;;;;;;10.93;9.83;;;19.20;99.90;;;;;;4881461;29;20228;-81
2021/08/14 01:44:00;;;;;;;10.20;9.20;;;19.20;99.90;;;;;;4880169;29;20204;-81
2021/08/14 01:46:29;;;;;;;9.70;8.67;;;19.10;99.90;;;;;;4883654;29;20204;-81
2021/08/14 01:48:56;;;;;;;10.83;9.67;;;19.10;99.90;;;;;;4877283;29;20204;-81
2021/08/14 01:51:23;;;;;;;12.33;10.13;;;19.10;99.90;;;;;;4874000;29;20235;-80
2021/08/14 01:53:52;;;;;;;11.97;9.90;;;19.10;99.90;;;;;;4884186;29;20905;-81
2021/08/14 01:56:19;;;;;;;12.17;10.57;;;19.10;99.90;;;;;;4883926;29;20669;-81
2021/08/14 01:58:46;;;;;;;11.80;10.47;;;19.00;99.90;;;;;;4885602;29;20330;-80
2021/08/14 02:01:15;;;;;;;11.47;10.03;;;19.00;99.90;;;;;;4882068;29;20240;-81
2021/08/14 02:03:42;;;;;;;12.30;10.47;;;18.90;99.90;;;;;;4882324;29;20261;-81
2021/08/14 02:06:09;;;;;;;11.03;9.23;;;18.90;99.90;;;;;;4879317;29;20680;-81
2021/08/14 02:08:37;;;;;;;11.27;10.17;;;18.90;99.90;;;;;;4880740;29;20268;-81
2021/08/14 02:11:11;;;;;;;12.27;9.93;;;18.80;99.90;;;;;;4883906;29;20277;-81
2021/08/14 02:13:38;;;;;;;11.83;10.47;;;18.80;99.90;;;;;;4882889;29;20216;-81
2021/08/14 02:16:05;;;;;;;11.17;10.07;;;18.80;99.90;;;;;;4881107;29;20560;-78
2021/08/14 02:18:33;;;;;;;12.60;10.50;;;18.70;99.90;;;;;;4884603;29;20256;-80
2021/08/14 02:21:00;;;;;;;10.83;9.73;;;18.70;99.90;;;;;;4885098;29;20235;-81
2021/08/14 02:23:27;;;;;;;11.27;10.07;;;18.70;99.90;;;;;;4881477;29;20216;-80
2021/08/14 02:25:53;;;;;;;11.93;10.20;;;18.70;99.90;;;;;;4884683;29;20256;-84
2021/08/14 02:28:20;;;;;;;10.10;9.10;;;18.70;99.90;;;;;;4884414;29;20213;-82
2021/08/14 02:30:48;;;;;;;10.90;9.80;;;18.70;99.90;;;;;;4879070;29;20217;-82
2021/08/14 02:33:15;;;;;;;10.60;9.50;;;18.60;99.90;;;;;;4884466;29;20702;-82
2021/08/14 02:35:43;;;;;;;9.87;8.97;;;18.60;99.90;;;;;;4877047;29;20205;-83
2021/08/14 02:38:10;;;;;;;9.80;8.27;;;18.60;99.90;;;;;;4875137;29;20216;-82
2021/08/14 02:40:37;;;;;;;9.23;7.97;;;18.50;99.90;;;;;;4871974;29;20218;-83
2021/08/14 02:43:04;;;;;;;8.70;7.60;;;18.50;99.90;;;;;;4878917;29;20220;-83
2021/08/14 02:45:34;;;;;;;9.07;7.90;;;18.50;99.90;;;;;;4880071;29;20216;-83
2021/08/14 02:48:01;;;;;;;10.10;7.90;;;18.40;99.90;;;;;;4878706;29;20205;-80
2021/08/14 02:50:29;;;;;;;9.80;8.80;;;18.40;99.90;;;;;;4879400;29;20754;-80
2021/08/14 02:52:57;;;;;;;10.33;9.37;;;18.40;99.90;;;;;;4884148;29;20220;-80
2021/08/14 02:55:24;;;;;;;10.77;9.67;;;18.40;99.90;;;;;;4880526;29;20212;-79
2021/08/14 02:57:51;;;;;;;11.07;9.97;;;18.40;99.90;;;;;;4868297;29;22256;-80
2021/08/14 03:00:19;;;;;;;10.73;9.73;;;18.30;99.90;;;;;;4885329;29;20249;-80
2021/08/14 03:02:46;;;;;;;10.50;9.60;;;18.30;99.90;;;;;;4948679;23;20272;-75
2021/08/14 03:05:13;;;;;;;9.93;9.00;;;18.30;99.90;;;;;;4914534;29;20274;-75
2021/08/14 03:07:40;;;;;;;10.43;9.47;;;18.30;99.90;;;;;;4904957;29;20676;-75
2021/08/14 03:10:09;;;;;;;10.07;9.07;;;18.20;99.90;;;;;;4912564;29;20214;-75
2021/08/14 03:12:36;;;;;;;10.43;9.43;;;18.20;99.90;;;;;;4906951;29;20232;-75
2021/08/14 03:15:03;;;;;;;11.43;9.07;;;18.20;99.90;;;;;;4903287;29;20208;-75
2021/08/14 03:17:30;;;;;;;11.03;9.80;;;18.30;99.90;;;;;;4906291;29;20285;-75
2021/08/14 03:19:57;;;;;;;9.93;8.97;;;18.20;99.90;;;;;;4899846;29;20208;-75
2021/08/14 03:22:24;;;;;;;10.20;9.13;;;18.20;99.90;;;;;;4899560;29;20291;-75
2021/08/14 03:24:51;;;;;;;11.13;10.03;;;18.20;99.90;;;;;;4903028;29;20301;-75
2021/08/14 03:27:19;;;;;;;10.27;8.90;;;18.20;99.90;;;;;;4899683;29;20218;-74
2021/08/14 03:29:46;;;;;;;10.70;9.70;;;18.10;99.90;;;;;;4899675;29;20208;-75
2021/08/14 03:32:13;;;;;;;10.13;9.07;;;18.10;99.90;;;;;;4891609;29;20288;-75
2021/08/14 03:34:39;;;;;;;10.97;9.87;;;18.10;99.90;;;;;;4899466;29;20612;-75
2021/08/14 03:37:06;;;;;;;10.87;9.77;;;18.10;99.90;;;;;;4899316;29;20265;-75
2021/08/14 03:39:34;;;;;;;11.30;10.20;;;18.00;99.90;;;;;;4894860;29;20201;-74
2021/08/14 03:42:01;;;;;;;10.93;9.30;;;18.00;99.90;;;;;;4903028;29;20411;-75
2021/08/14 03:44:30;;;;;;;9.90;9.00;;;18.00;99.90;;;;;;4902766;29;20255;-74
2021/08/14 03:46:57;;;;;;;10.23;8.67;;;17.90;99.90;;;;;;4889816;29;20571;-75
2021/08/14 03:49:25;;;;;;;10.77;9.67;;;17.90;99.90;;;;;;4897025;29;20298;-74
2021/08/14 03:51:52;;;;;;;9.33;8.43;;;17.90;99.90;;;;;;4895287;29;20309;-75
2021/08/14 03:54:19;;;;;;;8.93;8.13;;;17.90;99.90;;;;;;4898316;29;20215;-79
2021/08/14 03:56:45;;;;;;;9.83;8.80;;;17.90;99.90;;;;;;4897421;29;20207;-79
2021/08/14 03:59:12;;;;;;;10.60;9.50;;;17.90;99.90;;;;;;4891632;29;20216;-79
2021/08/14 04:01:40;;;;;;;11.50;10.40;;;17.90;99.90;;;;;;4896380;29;20232;-79
2021/08/14 04:04:07;;;;;;;10.67;9.60;;;17.80;99.90;;;;;;4895107;29;20211;-79
2021/08/14 04:06:34;;;;;;;11.63;10.43;;;17.80;99.90;;;;;;4899313;29;20204;-79
2021/08/14 04:09:01;;;;;;;11.83;10.73;;;17.80;99.90;;;;;;4900749;29;20212;-79
2021/08/14 04:11:27;;;;;;;11.80;10.60;;;17.80;99.90;;;;;;4902257;29;20288;-77
2021/08/14 04:13:54;;;;;;;11.57;10.47;;;17.80;99.90;;;;;;4898347;29;20262;-79
2021/08/14 04:16:21;;;;;;;12.33;11.10;;;17.80;99.90;;;;;;4908360;29;20211;-78
2021/08/14 04:18:49;;;;;;;13.03;11.73;;;17.80;99.90;;;;;;4898210;29;20206;-79
2021/08/14 04:21:16;;;;;;;12.10;11.00;;;17.80;99.90;;;;;;4897376;29;20219;-79
2021/08/14 04:23:42;;;;;;;12.10;10.90;;;17.80;99.90;;;;;;4897451;29;20228;-78
2021/08/14 04:26:09;;;;;;;12.80;11.60;;;17.80;99.90;;;;;;4895788;29;20330;-78
2021/08/14 04:28:36;;;;;;;12.63;11.43;;;17.80;99.90;;;;;;4896052;29;20221;-79
2021/08/14 04:31:03;;;;;;;12.77;11.50;;;17.70;99.90;;;;;;4895961;29;20671;-79
2021/08/14 04:33:30;;;;;;;13.27;11.90;;;17.80;99.90;;;;;;4898527;29;20291;-79
2021/08/14 04:35:58;;;;;;;12.43;11.23;;;17.80;99.90;;;;;;4896299;29;20202;-79
2021/08/14 04:38:24;;;;;;;14.10;12.60;;;17.80;99.90;;;;;;4898534;29;20276;-79
2021/08/14 04:40:51;;;;;;;13.00;11.80;;;17.80;99.90;;;;;;4892862;29;20207;-81
2021/08/14 04:43:18;;;;;;;14.40;12.90;;;17.90;99.90;;;;;;4889331;29;20231;-78
2021/08/14 04:45:45;;;;;;;13.73;12.33;;;17.90;99.90;;;;;;4895750;29;20262;-76
2021/08/14 04:48:11;;;;;;;14.17;12.83;;;18.00;99.90;;;;;;4898423;29;20208;-76
2021/08/14 04:50:38;;;;;;;14.20;12.70;;;18.10;99.90;;;;;;4898235;29;20254;-76
2021/08/14 04:53:06;;;;;;;13.80;12.57;;;18.10;99.90;;;;;;4896529;29;20285;-76
2021/08/14 04:55:33;;;;;;;15.17;13.77;;;18.10;99.90;;;;;;4897509;29;20206;-76
2021/08/14 04:58:00;;;;;;;14.40;13.00;;;18.20;99.90;;;;;;4896098;29;20267;-76
2021/08/14 05:00:27;;;;;;;14.47;13.10;;;18.20;99.90;;;;;;4893908;29;20260;-76
2021/08/14 05:02:53;;;;;;;13.53;12.23;;;18.30;99.90;;;;;;4895972;29;20331;-75
2021/08/14 05:05:20;;;;;;;13.33;12.13;;;18.30;99.90;;;;;;4890856;29;20216;-75
2021/08/14 05:07:47;;;;;;;12.23;11.13;;;18.40;99.90;;;;;;4897477;29;20264;-75
2021/08/14 05:10:16;;;;;;;12.90;11.60;;;18.40;99.90;;;;;;4896851;29;20287;-77
2021/08/14 05:12:43;;;;;;;13.30;11.90;;;18.50;99.90;;;;;;4895971;29;20867;-76
2021/08/14 05:15:10;;;;;;;12.43;11.33;;;18.60;99.90;;;;;;4897416;29;20200;-77
2021/08/14 05:17:37;;;;;;;11.57;10.57;;;18.70;99.90;;;;;;4897323;29;20209;-77
2021/08/14 05:20:05;;;;;;;11.33;10.23;;;18.90;99.90;;;;;;4897677;29;20729;-75
2021/08/14 05:22:32;;;;;;;12.13;10.17;;;19.00;99.90;;;;;;4895849;29;20291;-76
2021/08/14 05:24:59;;;;;;;11.37;10.27;;;19.20;99.90;;;;;;4893290;29;20202;-75
2021/08/14 05:27:27;;;;;;;11.07;9.97;;;19.30;99.90;;;;;;4891471;29;20645;-77
2021/08/14 05:29:54;;;;;;;11.53;9.77;;;19.40;99.90;;;;;;4896728;29;20260;-76
2021/08/14 05:32:20;;;;;;;10.40;9.30;;;19.60;99.90;;;;;;4896960;29;20226;-75
2021/08/14 05:34:47;;;;;;;11.17;9.13;;;19.70;99.90;;;;;;4895232;29;20265;-76
2021/08/14 05:37:14;;;;;;;10.17;9.03;;;19.90;99.90;;;;;;4895773;29;20205;-77
2021/08/14 05:39:41;;;;;;;16.80;10.70;;;20.00;99.90;;;;;;4896704;29;20730;-75
2021/08/14 05:42:08;;;;;;;11.87;9.07;;;20.20;99.90;;;;;;4896655;29;20247;-74
2021/08/14 05:44:36;;;;;;;10.83;9.70;;;20.30;99.90;;;;;;4896579;29;20206;-77
2021/08/14 05:47:03;;;;;;;9.83;8.83;;;20.30;99.90;;;;;;4894551;29;20714;-75
2021/08/14 05:49:30;;;;;;;11.17;10.07;;;20.50;99.90;;;;;;4897408;29;20203;-76
2021/08/14 05:51:59;;;;;;;10.43;9.40;;;20.80;99.90;;;;;;4895303;29;20215;-78
2021/08/14 05:54:26;;;;;;;10.73;9.73;;;20.90;99.90;;;;;;4896044;29;20565;-81
2021/08/14 05:56:53;;;;;;;10.23;9.23;;;20.90;99.90;;;;;;4895638;29;20207;-77
2021/08/14 05:59:20;;;;;;;10.53;9.33;;;20.90;99.90;;;;;;4891337;29;20211;-77
2021/08/14 06:01:48;;;;;;;11.33;9.83;;;20.90;99.90;;;;;;4894977;29;20729;-77
2021/08/14 06:04:15;;;;;;;11.33;9.40;;;20.90;99.90;;;;;;4895005;29;20195;-77
2021/08/14 06:06:43;;;;;;;9.57;8.67;;;20.80;99.90;;;;;;4896332;29;20208;-76
2021/08/14 06:09:10;;;;;;;10.67;9.60;;;20.90;99.90;;;;;;4895904;29;20208;-76
2021/08/14 06:11:37;;;;;;;10.30;9.30;;;20.90;99.90;;;;;;4894710;29;20641;-76
2021/08/14 06:14:04;;;;;;;10.50;9.50;;;20.90;99.90;;;;;;4895124;29;20259;-77
2021/08/14 06:16:30;;;;;;;12.83;11.73;;;20.90;99.90;;;;;;4900227;29;20210;-77
2021/08/14 06:18:59;;;;;;;12.20;11.20;;;21.00;99.90;;;;;;4892253;29;20269;-77
2021/08/14 06:21:25;;;;;;;9.53;8.60;;;21.10;99.90;;;;;;4889001;29;20284;-78
2021/08/14 06:23:52;;;;;;;10.20;9.20;;;21.20;99.90;;;;;;4897295;29;20216;-78
2021/08/14 06:26:19;;;;;;;12.37;11.37;;;21.40;99.90;;;;;;4894525;29;20259;-77
2021/08/14 06:28:46;;;;;;;9.50;8.50;;;21.60;99.90;;;;;;4903119;29;20236;-77
2021/08/14 06:31:14;;;;;;;12.03;11.03;;;21.70;99.90;;;;;;4900686;29;20212;-78
2021/08/14 06:33:41;;;;;;;13.47;12.37;;;21.90;99.90;;;;;;4902916;29;20199;-78
2021/08/14 06:36:09;;;;;;;14.30;13.10;;;22.00;99.90;;;;;;4897607;29;20200;-78
2021/08/14 06:38:36;;;;;;;13.47;12.37;;;22.00;99.90;;;;;;4899057;29;20276;-77
2021/08/14 06:41:03;;;;;;;11.93;10.97;;;22.10;99.90;;;;;;4897078;29;20686;-77
2021/08/14 06:43:30;;;;;;;10.97;9.97;;;22.20;99.90;;;;;;4901433;29;20235;-78
2021/08/14 06:45:57;;;;;;;12.23;11.33;;;22.30;99.90;;;;;;4902074;29;20261;-77
2021/08/14 06:48:24;;;;;;;12.03;11.03;;;22.50;99.90;;;;;;4900777;29;20283;-78
2021/08/14 06:50:51;;;;;;;10.70;9.70;;;22.70;99.90;;;;;;4901090;29;20255;-77
2021/08/14 06:53:19;;;;;;;9.90;6.80;;;22.70;99.90;;;;;;4900398;29;20730;-78
2021/08/14 06:55:46;;;;;;;11.23;10.13;;;22.90;99.90;;;;;;4902007;29;20200;-78
2021/08/14 06:58:12;;;;;;;12.63;11.63;;;23.00;99.90;;;;;;4902480;29;20720;-77
2021/08/14 07:00:39;;;;;;;12.40;11.20;;;23.20;99.90;;;;;;4899163;29;20677;-79
2021/08/14 07:03:07;;;;;;;10.17;7.13;;;23.30;99.90;;;;;;4898834;29;20645;-80
2021/08/14 07:05:34;;;;;;;10.27;9.37;;;23.50;99.90;;;;;;4902589;29;20201;-79
2021/08/14 07:08:00;;;;;;;11.00;10.00;;;23.60;99.90;;;;;;4903467;29;20295;-79
2021/08/14 07:10:29;;;;;;;9.70;7.43;;;23.60;99.90;;;;;;4903206;29;20284;-78
2021/08/14 07:12:55;;;;;;;10.57;9.67;;;23.60;99.90;;;;;;4910937;29;20224;-78
2021/08/14 07:15:22;;;;;;;11.10;10.20;;;23.70;99.90;;;;;;4903105;29;20729;-79
2021/08/14 07:17:50;;;;;;;11.93;11.03;;;23.70;99.90;;;;;;4903327;29;20208;-79
2021/08/14 07:20:17;;;;;;;9.00;8.10;;;23.80;99.90;;;;;;4904675;29;20659;-80
2021/08/14 07:22:44;;;;;;;9.30;8.37;;;24.00;99.90;;;;;;4898131;29;20224;-79
2021/08/14 07:25:11;;;;;;;10.17;8.63;;;24.20;99.90;;;;;;4904723;29;20208;-78
2021/08/14 07:27:39;;;;;;;11.60;10.40;;;24.30;99.90;;;;;;4898495;29;20228;-79
2021/08/14 07:30:09;;;;;;;12.03;10.37;;;24.60;99.90;;;;;;4904407;29;20251;-80
2021/08/14 07:32:35;;;;;;;11.43;10.43;;;24.90;99.90;;;;;;4892677;29;20262;-79
2021/08/14 07:35:03;;;;;;;10.77;9.77;;;25.20;99.90;;;;;;4916228;29;20205;-78
2021/08/14 07:37:29;;;;;;;11.27;10.17;;;25.60;99.90;;;;;;4901717;29;20636;-80
2021/08/14 07:39:56;;;;;;;18.40;10.97;;;26.10;99.90;;;;;;4899932;29;20205;-83
2021/08/14 07:42:23;;;;;;;12.23;11.23;;;26.50;99.90;;;;;;4901644;29;20693;-78
2021/08/14 07:44:51;;;;;;;12.37;11.37;;;26.90;99.90;;;;;;4899769;29;20284;-79
2021/08/14 07:47:19;;;;;;;11.87;10.77;;;27.30;99.90;;;;;;4894084;29;20208;-77
2021/08/14 07:49:46;;;;;;;10.00;6.83;;;27.60;99.90;;;;;;4897619;29;20209;-75
2021/08/14 07:52:13;;;;;;;8.63;7.50;;;27.90;99.90;;;;;;4901063;29;20228;-76
2021/08/14 07:54:39;;;;;;;8.93;7.13;;;28.20;99.90;;;;;;4899323;29;20694;-76
2021/08/14 07:57:06;;;;;;;7.93;7.03;;;28.40;99.90;;;;;;4899534;29;20212;-76
2021/08/14 07:59:33;;;;;;;10.13;7.47;;;28.60;99.90;;;;;;4899283;29;20686;-76
2021/08/14 08:02:01;;;;;;;8.50;7.13;;;28.70;99.90;;;;;;4899108;29;20721;-76
2021/08/14 08:04:28;;;;;;;8.40;7.50;;;29.00;99.90;;;;;;4899043;29;20506;-76
2021/08/14 08:06:55;;;;;;;7.57;6.70;;;29.00;99.90;;;;;;4900375;29;20212;-76
2021/08/14 08:09:21;;;;;;;8.33;7.33;;;29.00;99.90;;;;;;4899546;29;20276;-77
2021/08/14 08:11:48;;;;;;;10.50;9.60;;;29.30;99.90;;;;;;4897648;29;20292;-76
2021/08/14 08:14:15;;;;;;;10.63;9.73;;;29.30;99.90;;;;;;4895458;29;20196;-79
2021/08/14 08:16:42;;;;;;;13.10;9.87;;;29.30;99.90;;;;;;4899980;29;20248;-84
2021/08/14 08:19:10;;;;;;;10.77;9.77;;;29.00;99.90;;;;;;4898787;29;20638;-83
2021/08/14 08:21:37;;;;;;;10.73;9.63;;;29.20;99.90;;;;;;4896385;29;20281;-83
2021/08/14 08:24:04;;;;;;;11.13;10.03;;;29.30;99.90;;;;;;4897548;29;20262;-82
2021/08/14 08:26:32;;;;;;;11.43;10.47;;;29.30;99.90;;;;;;4911452;29;20625;-81
2021/08/14 08:28:59;;;;;;;11.87;10.67;;;29.50;99.90;;;;;;4897332;29;20311;-81
2021/08/14 08:31:26;;;;;;;12.03;10.93;;;29.60;99.90;;;;;;4896351;29;20229;-80
2021/08/14 08:33:52;;;;;;;12.37;11.30;;;29.90;99.90;;;;;;4898182;29;20241;-82
2021/08/14 08:36:21;;;;;;;11.87;10.87;;;30.10;99.90;;;;;;4899851;29;20225;-82
2021/08/14 08:38:48;;;;;;;12.03;11.03;;;29.80;99.90;;;;;;4894905;29;20718;-81
2021/08/14 08:41:18;;;;;;;13.10;11.43;;;29.90;99.90;;;;;;4898111;29;20228;-82
2021/08/14 08:43:44;;;;;;;11.53;10.53;;;30.20;99.90;;;;;;4894811;29;20307;-82
2021/08/14 08:46:12;;;;;;;11.17;10.17;;;30.00;99.90;;;;;;4899289;29;20224;-79
2021/08/14 08:48:44;;;;;;;11.77;10.77;;;30.20;99.90;;;;;;4898115;29;20204;-77
2021/08/14 08:51:11;;;;;;;12.10;11.00;;;30.30;99.90;;;;;;4897974;29;20242;-76
2021/08/14 08:53:39;;;;;;;12.20;11.20;;;30.70;99.90;;;;;;4888462;29;20197;-79
2021/08/14 08:56:06;;;;;;;12.80;11.77;;;30.20;99.90;;;;;;4899502;29;20197;-79
2021/08/14 08:58:34;;;;;;;12.37;11.27;;;30.00;99.90;;;;;;4897506;29;20201;-84
2021/08/14 09:01:01;;;;;;;9.87;9.07;;;29.90;99.90;;;;;;4898168;29;20276;-81
2021/08/14 09:03:32;;;;;;;13.10;11.90;;;30.20;99.90;;;;;;4973712;23;20592;-82
2021/08/14 09:09:26;;;;;;;11.90;10.80;;;30.40;99.90;;;;;;4893271;29;20208;-82
2021/08/14 09:12:35;;;;;;;13.33;12.13;;;30.50;99.90;;;;;;4874306;29;20340;-78
2021/08/14 09:18:24;;;;;;;10.40;9.50;;;30.70;99.90;;;;;;4888136;29;20201;-82
2021/08/14 09:21:22;;;;;;;10.93;10.13;;;30.90;99.90;;;;;;4894645;29;20210;-82
2021/08/14 09:27:34;;;;;;;10.23;9.33;;;31.00;99.90;;;;;;4866737;29;20699;-82
2021/08/14 09:30:10;;;;;;;10.67;9.70;;;30.70;99.90;;;;;;4878716;29;20205;-79
2021/08/14 09:33:47;;;;;;;10.23;9.40;;;31.10;99.90;;;;;;4880089;29;20225;-83
2021/08/14 09:37:09;;;;;;;10.13;9.33;;;31.10;99.90;;;;;;4857889;29;20213;-83
2021/08/14 09:40:34;;;;;;;10.20;9.23;;;31.30;99.90;;;;;;4851106;29;20208;-83
2021/08/14 09:43:18;;;;;;;9.73;8.83;;;31.60;99.90;;;;;;4865098;29;20214;-83
2021/08/14 09:49:52;;;;;;;11.87;10.83;;;31.30;99.90;;;;;;4832743;29;20225;-82
2021/08/14 09:52:52;;;;;;;12.10;11.20;;;31.30;99.90;;;;;;4871786;29;20316;-80
2021/08/14 09:55:29;;;;;;;11.97;10.93;;;31.30;99.90;;;;;;4868604;29;20248;-82
2021/08/14 09:58:10;;;;;;;12.37;11.37;;;31.60;99.90;;;;;;4877890;29;20192;-81
2021/08/14 10:01:02;;;;;;;11.50;10.50;;;31.70;99.90;;;;;;4880648;29;20213;-80
2021/08/14 10:03:30;;;;;;;12.10;11.03;;;31.50;99.90;;;;;;4878647;29;20228;-82
2021/08/14 10:06:11;;;;;;;13.37;11.93;;;31.10;99.90;;;;;;4880237;29;20197;-81
2021/08/14 10:08:42;;;;;;;12.30;11.30;;;31.20;99.90;;;;;;4870068;29;20725;-81
2021/08/14 10:11:12;;;;;;;12.40;11.40;;;31.40;99.90;;;;;;4873769;29;20257;-81
2021/08/14 10:16:59;;;;;;;12.50;11.40;;;31.30;99.90;;;;;;4872814;29;20681;-81
2021/08/14 10:19:34;;;;;;;12.00;10.97;;;31.40;99.90;;;;;;4878087;29;20197;-83
2021/08/14 10:22:08;;;;;;;11.70;10.70;;;31.40;99.90;;;;;;4876321;29;20737;-82
2021/08/14 10:24:56;;;;;;;11.87;10.73;;;31.20;99.90;;;;;;4872893;29;20222;-81
2021/08/14 10:27:56;;;;;;;11.90;10.90;;;30.90;99.90;;;;;;4880616;29;20269;-81
2021/08/14 10:31:08;;;;;;;11.43;10.53;;;30.60;99.90;;;;;;4867454;29;20205;-81
2021/08/14 10:33:45;;;;;;;11.40;10.50;;;30.50;99.90;;;;;;4985431;23;20335;-80
2021/08/14 10:36:36;;;;;;;11.73;10.63;;;30.40;99.90;;;;;;4880138;29;20208;-81
2021/08/14 10:39:32;;;;;;;11.77;10.77;;;30.30;99.90;;;;;;4868831;29;20205;-80
2021/08/14 10:45:37;;;;;;;11.03;8.10;;;30.20;99.90;;;;;;4858896;29;20738;-81
2021/08/14 10:48:20;;;;;;;11.77;10.93;;;30.40;99.90;;;;;;4871341;29;20213;-80
2021/08/14 10:51:01;;;;;;;9.83;8.83;;;30.60;99.90;;;;;;4873554;29;20234;-81
2021/08/14 10:57:37;;;;;;;11.70;10.60;;;30.80;99.90;;;;;;4831688;29;20206;-81
2021/08/14 11:00:35;;;;;;;12.60;11.33;;;30.60;99.90;;;;;;4880952;29;20208;-80
2021/08/14 11:03:31;;;;;;;11.77;10.57;;;30.70;99.90;;;;;;4859175;29;20228;-81
2021/08/14 11:10:23;;;;;;;10.37;9.40;;;31.00;99.90;;;;;;4861759;29;20288;-81
2021/08/14 11:13:06;;;;;;;9.93;9.03;;;30.70;99.90;;;;;;4857656;29;20253;-81
2021/08/14 11:16:23;;;;;;;9.30;8.40;;;30.70;99.90;;;;;;4861219;29;20212;-80
2021/08/14 11:18:56;;;;;;;10.00;9.10;;;30.60;99.90;;;;;;4797806;29;20269;-80
2021/08/14 11:21:59;;;;;;;10.67;9.67;;;30.50;99.90;;;;;;4881185;29;20210;-81
2021/08/14 11:24:46;;;;;;;10.77;9.70;;;30.30;99.90;;;;;;4808076;29;20226;-81
2021/08/14 11:27:25;;;;;;;9.23;8.40;;;30.30;99.90;;;;;;4830687;29;20207;-81
2021/08/14 11:33:34;;;;;;;10.47;9.47;;;29.90;99.90;;;;;;4843931;29;20245;-80
2021/08/14 11:36:05;;;;;;;10.90;9.60;;;29.80;99.90;;;;;;4857582;29;20194;-80
2021/08/14 11:39:15;;;;;;;12.60;11.60;;;29.60;99.90;;;;;;4876923;29;20205;-81
2021/08/14 11:41:44;;;;;;;13.07;11.90;;;29.70;99.90;;;;;;4859145;29;20304;-80
2021/08/14 11:44:25;;;;;;;12.40;11.30;;;29.80;99.90;;;;;;4861816;29;20214;-80
2021/08/14 11:47:36;;;;;;;12.17;10.97;;;29.80;99.90;;;;;;4862283;29;20213;-81
2021/08/14 11:50:08;;;;;;;12.20;11.10;;;29.70;99.90;;;;;;4859372;29;20202;-80
2021/08/14 11:52:43;;;;;;;12.47;11.10;;;29.80;99.90;;;;;;4860034;29;20229;-80
2021/08/14 11:55:36;;;;;;;12.40;11.30;;;29.70;99.90;;;;;;4871898;29;20668;-81
2021/08/14 12:02:16;;;;;;;12.30;11.20;;;29.70;99.90;;;;;;4837345;29;20206;-80
2021/08/14 12:05:24;;;;;;;12.80;11.50;;;29.60;99.90;;;;;;4876211;29;20221;-80
2021/08/14 12:08:06;;;;;;;13.40;11.67;;;29.70;99.90;;;;;;4861970;29;20220;-80
2021/08/14 12:10:39;;;;;;;13.20;12.00;;;29.50;99.90;;;;;;4864624;29;20209;-80
2021/08/14 12:13:21;;;;;;;12.43;11.17;;;29.60;99.90;;;;;;4860442;29;20321;-79
2021/08/14 12:16:15;;;;;;;12.50;11.40;;;29.50;99.90;;;;;;4870389;29;20342;-80
2021/08/14 12:19:20;;;;;;;11.77;10.83;;;29.50;99.90;;;;;;4869624;29;20680;-80
2021/08/14 12:35:23;;;;;;;12.50;11.33;;;29.40;99.90;;;;;;5058043;28;20502;-78
2021/08/14 12:37:53;;;;;;;12.47;11.27;;;29.50;99.90;;;;;;5040879;28;20282;-78
2021/08/14 12:40:41;;;;;;;11.70;10.80;;;29.60;99.90;;;;;;5056078;28;20680;-79
2021/08/14 12:43:14;;;;;;;13.10;11.90;;;29.70;99.90;;;;;;5042595;28;20222;-79
2021/08/14 12:45:47;;;;;;;12.13;11.13;;;29.60;99.90;;;;;;5059389;28;20201;-79
2021/08/14 12:51:17;;;;;;;12.23;11.03;;;29.40;99.90;;;;;;5065096;28;20585;-80
2021/08/14 12:53:44;;;;;;;12.10;11.10;;;29.30;99.90;;;;;;5039321;28;20306;-80
2021/08/14 12:56:17;;;;;;;12.47;11.37;;;29.40;99.90;;;;;;5039879;28;20202;-79
2021/08/14 12:58:54;;;;;;;11.83;10.73;;;29.40;99.90;;;;;;5039258;28;20199;-81
2021/08/14 13:01:30;;;;;;;12.80;11.57;;;29.40;99.90;;;;;;5044174;28;20718;-81
2021/08/14 13:04:15;;;;;;;;;;;;;;;;;;;;;
2021/08/14 13:07:28;;;;;;;11.97;10.97;;;29.50;99.90;;;;;;5062043;28;20750;-81
2021/08/14 13:10:15;;;;;;;11.93;10.93;;;29.70;99.90;;;;;;5043908;28;20685;-81
2021/08/14 13:12:53;;;;;;;12.67;11.37;;;29.80;99.90;;;;;;5044229;28;20228;-81
2021/08/14 13:15:30;;;;;;;12.37;11.27;;;29.80;99.90;;;;;;5040022;28;20285;-81
2021/08/14 13:18:06;;;;;;;11.80;10.80;;;29.80;99.90;;;;;;5064359;28;20202;-81
2021/08/14 13:27:42;;;;;;;;;;;;;;;;;;;;;
2021/08/14 13:30:36;;;;;;;14.47;11.30;;;30.30;99.90;;;;;;5041798;28;20962;-79
2021/08/14 13:33:34;;;;;;;11.50;10.40;;;30.30;99.90;;;;;;5050856;28;20265;-80
2021/08/14 13:43:22;;;;;;;11.60;10.60;;;30.10;99.90;;;;;;4981477;28;20227;-79
2021/08/14 13:45:51;;;;;;;11.37;10.20;;;30.20;99.90;;;;;;5051348;28;20195;-79
2021/08/14 13:48:57;;;;;;;11.53;10.53;;;30.10;99.90;;;;;;5039619;28;20670;-79
2021/08/14 13:51:54;;;;;;;11.10;10.10;;;29.90;99.90;;;;;;5029279;28;20261;-80
2021/08/14 13:54:42;;;;;;;10.90;10.03;;;29.90;99.90;;;;;;5048221;28;20191;-78
2021/08/14 13:57:28;;;;;;;10.93;9.97;;;29.90;99.90;;;;;;5023093;28;20196;-78
2021/08/14 13:59:55;;;;;;;11.27;10.27;;;30.10;99.90;;;;;;5047947;28;20624;-79
2021/08/14 14:05:56;;;;;;;11.60;10.70;;;30.20;99.90;;;;;;5038377;28;20223;-79
2021/08/14 14:08:25;;;;;;;11.73;10.57;;;30.40;99.90;;;;;;5041603;28;20326;-79
2021/08/14 14:10:53;;;;;;;11.77;10.70;;;30.30;99.90;;;;;;5046172;28;20822;-78